Time;durP1;ratioP1;P1;durP2;ratioP2;P2;SDS_P1;SDS_P2;PMS_P1;PMS_P2;Temp;Humidity;BMP_temperature;BMP_pressure;BME280_temperature;BME280_humidity;BME280_pressure;Samples;Min_cycle;Max_cycle;Signal;HPM_P1;HPM_P2
2023/03/06 00:02:16;;;;;;;33.95;18.73;;;;;;;;;;5100923;28;20028;-90
2023/03/06 00:04:42;;;;;;;33.33;19.25;;;;;;;;;;5100430;28;20020;-89
2023/03/06 00:07:08;;;;;;;36.22;22.23;;;;;;;;;;5100670;28;20058;-91
2023/03/06 00:09:34;;;;;;;34.45;21.67;;;;;;;;;;5100619;28;20020;-90
2023/03/06 00:12:00;;;;;;;33.30;20.85;;;;;;;;;;5100630;28;20035;-90
2023/03/06 00:14:27;;;;;;;34.85;22.67;;;;;;;;;;5100392;28;20020;-90
2023/03/06 00:16:56;;;;;;;38.25;22.75;;;;;;;;;;5082778;28;20051;-90
2023/03/06 00:19:23;;;;;;;38.00;22.48;;;;;;;;;;5100638;28;20020;-89
2023/03/06 00:21:49;;;;;;;32.75;19.58;;;;;;;;;;5100404;28;20036;-90
2023/03/06 00:24:15;;;;;;;31.55;19.77;;;;;;;;;;5100110;28;20028;-91
2023/03/06 00:26:42;;;;;;;32.95;19.98;;;;;;;;;;5082083;28;20032;-92
2023/03/06 00:29:08;;;;;;;32.38;19.70;;;;;;;;;;5082277;28;20099;-91
2023/03/06 00:31:34;;;;;;;37.75;21.50;;;;;;;;;;5100202;28;20020;-93
2023/03/06 00:34:02;;;;;;;36.67;22.38;;;;;;;;;;5100314;28;20099;-93
2023/03/06 00:36:28;;;;;;;35.65;22.67;;;;;;;;;;5100301;28;20020;-93
2023/03/06 00:38:54;;;;;;;38.40;21.95;;;;;;;;;;5082359;28;20024;-93
2023/03/06 00:41:21;;;;;;;34.80;21.30;;;;;;;;;;5099859;28;20028;-93
2023/03/06 00:43:47;;;;;;;32.42;19.38;;;;;;;;;;5082090;28;20039;-93
2023/03/06 00:46:13;;;;;;;34.63;21.83;;;;;;;;;;5099929;28;20024;-95
2023/03/06 00:48:39;;;;;;;31.75;19.67;;;;;;;;;;5081950;28;20031;-94
2023/03/06 00:51:06;;;;;;;29.73;18.20;;;;;;;;;;5098456;28;20039;-94
2023/03/06 00:53:32;;;;;;;26.92;16.52;;;;;;;;;;5099716;28;20085;-94
2023/03/06 00:55:58;;;;;;;26.05;16.90;;;;;;;;;;5081960;28;20333;-94
2023/03/06 00:58:24;;;;;;;29.25;17.08;;;;;;;;;;5099802;28;20024;-95
2023/03/06 01:00:50;;;;;;;28.83;16.88;;;;;;;;;;5099368;28;20031;-95
2023/03/06 01:03:16;;;;;;;28.35;16.33;;;;;;;;;;5099854;28;20028;-92
2023/03/06 01:05:42;;;;;;;26.98;16.30;;;;;;;;;;5099456;28;20088;-93
2023/03/06 01:08:08;;;;;;;25.35;16.42;;;;;;;;;;5099461;28;20048;-94
2023/03/06 01:10:37;;;;;;;29.77;16.83;;;;;;;;;;5099447;28;20019;-94
2023/03/06 01:13:04;;;;;;;28.45;15.48;;;;;;;;;;5099803;28;20031;-94
2023/03/06 01:15:30;;;;;;;25.70;15.70;;;;;;;;;;5099320;28;20028;-93
2023/03/06 01:17:56;;;;;;;25.92;15.10;;;;;;;;;;5081533;28;20059;-93
2023/03/06 01:20:22;;;;;;;26.00;16.17;;;;;;;;;;5099192;28;20024;-94
2023/03/06 01:22:48;;;;;;;24.05;16.17;;;;;;;;;;5099159;28;20051;-94
2023/03/06 01:25:14;;;;;;;29.00;17.42;;;;;;;;;;5099086;28;20016;-95
2023/03/06 01:27:40;;;;;;;27.80;16.20;;;;;;;;;;5090558;28;20028;-95
2023/03/06 01:30:06;;;;;;;25.05;15.55;;;;;;;;;;5081186;28;20318;-94
2023/03/06 01:32:32;;;;;;;25.52;15.38;;;;;;;;;;5099005;28;20028;-93
2023/03/06 01:34:59;;;;;;;27.83;15.75;;;;;;;;;;5081137;28;20024;-94
2023/03/06 01:37:25;;;;;;;24.73;16.00;;;;;;;;;;5098840;28;20523;-94
2023/03/06 01:39:51;;;;;;;24.25;15.70;;;;;;;;;;5098872;28;20043;-93
2023/03/06 01:42:17;;;;;;;25.95;15.73;;;;;;;;;;5081091;28;20028;-92
2023/03/06 01:45:00;;;;;;;26.08;15.95;;;;;;;;;;5098918;28;20020;-92
2023/03/06 01:47:26;;;;;;;30.45;16.20;;;;;;;;;;5080795;28;20111;-92
2023/03/06 01:49:53;;;;;;;25.23;16.15;;;;;;;;;;5098592;28;20035;-92
2023/03/06 01:52:23;;;;;;;34.97;19.85;;;;;;;;;;5080879;28;20035;-92
2023/03/06 01:54:51;;;;;;;36.20;19.73;;;;;;;;;;5080760;28;20332;-95
2023/03/06 01:57:20;;;;;;;32.53;18.15;;;;;;;;;;5098949;28;20103;-92
2023/03/06 01:59:47;;;;;;;30.67;18.02;;;;;;;;;;5098481;28;20110;-93
2023/03/06 02:02:14;;;;;;;34.42;20.33;;;;;;;;;;5080183;28;20024;-93
2023/03/06 02:04:41;;;;;;;48.25;23.77;;;;;;;;;;5098578;28;20410;-93
2023/03/06 02:07:07;;;;;;;41.90;22.33;;;;;;;;;;5098132;28;20548;-93
2023/03/06 02:09:34;;;;;;;37.95;21.15;;;;;;;;;;5098694;28;20024;-91
2023/03/06 02:12:06;;;;;;;35.20;19.50;;;;;;;;;;5098373;28;20031;-92
2023/03/06 02:14:32;;;;;;;32.92;18.48;;;;;;;;;;5098281;28;20429;-93
2023/03/06 02:16:58;;;;;;;32.55;18.75;;;;;;;;;;5098294;28;20046;-91
2023/03/06 02:19:27;;;;;;;31.67;18.27;;;;;;;;;;5079836;28;20040;-92
2023/03/06 02:21:53;;;;;;;31.90;18.20;;;;;;;;;;5098073;28;20034;-92
2023/03/06 02:24:38;;;;;;;32.33;20.02;;;;;;;;;;5098410;28;20026;-92
2023/03/06 02:27:06;;;;;;;31.00;19.77;;;;;;;;;;5098197;28;20027;-91
2023/03/06 02:29:32;;;;;;;34.58;20.02;;;;;;;;;;5080433;28;20111;-92
2023/03/06 02:31:58;;;;;;;33.28;19.02;;;;;;;;;;5097936;28;20489;-92
2023/03/06 02:34:24;;;;;;;32.53;19.77;;;;;;;;;;5080118;28;20032;-93
2023/03/06 02:36:54;;;;;;;30.58;18.42;;;;;;;;;;5080226;28;20122;-92
2023/03/06 02:39:24;;;;;;;30.58;19.00;;;;;;;;;;5097977;28;20406;-92
2023/03/06 02:41:51;;;;;;;32.97;19.98;;;;;;;;;;5097826;28;20054;-93
2023/03/06 02:44:17;;;;;;;39.67;23.02;;;;;;;;;;5080036;28;20115;-93
2023/03/06 02:46:43;;;;;;;36.50;22.58;;;;;;;;;;5097840;28;20028;-93
2023/03/06 02:49:09;;;;;;;42.63;23.33;;;;;;;;;;5097723;28;20422;-92
2023/03/06 02:51:35;;;;;;;38.20;21.90;;;;;;;;;;5097918;28;20024;-92
2023/03/06 02:54:01;;;;;;;35.60;22.42;;;;;;;;;;5097619;28;20317;-93
2023/03/06 02:56:27;;;;;;;35.20;21.92;;;;;;;;;;5079458;28;20039;-92
2023/03/06 02:58:53;;;;;;;35.72;22.33;;;;;;;;;;5079242;28;20067;-93
2023/03/06 03:01:19;;;;;;;38.10;21.75;;;;;;;;;;5097572;28;20032;-91
2023/03/06 03:03:45;;;;;;;34.90;21.67;;;;;;;;;;5097506;28;20340;-93
2023/03/06 03:06:11;;;;;;;35.42;22.05;;;;;;;;;;5080023;28;20042;-92
2023/03/06 03:08:37;;;;;;;34.88;21.63;;;;;;;;;;5079899;28;20433;-94
2023/03/06 03:11:04;;;;;;;39.97;22.98;;;;;;;;;;5097644;28;20024;-93
2023/03/06 03:13:30;;;;;;;39.42;23.30;;;;;;;;;;5097508;28;20410;-91
2023/03/06 03:15:59;;;;;;;44.10;24.70;;;;;;;;;;5083754;28;20341;-91
2023/03/06 03:18:25;;;;;;;39.40;23.90;;;;;;;;;;5083808;28;20027;-91
2023/03/06 03:20:51;;;;;;;51.38;25.63;;;;;;;;;;5083812;28;20111;-91
2023/03/06 03:23:17;;;;;;;92.07;38.88;;;;;;;;;;5101736;28;20032;-92
2023/03/06 03:25:43;;;;;;;99.07;40.70;;;;;;;;;;5101485;28;20111;-91
2023/03/06 03:28:09;;;;;;;52.40;26.75;;;;;;;;;;5101430;28;20022;-91
2023/03/06 03:30:35;;;;;;;93.68;35.88;;;;;;;;;;5083652;28;20028;-93
2023/03/06 03:33:02;;;;;;;117.32;41.08;;;;;;;;;;5101301;28;20028;-91
2023/03/06 03:35:28;;;;;;;96.43;34.92;;;;;;;;;;5101121;28;20115;-92
2023/03/06 03:37:54;;;;;;;93.75;35.85;;;;;;;;;;5101571;28;20024;-94
2023/03/06 03:40:20;;;;;;;85.43;36.08;;;;;;;;;;5101427;28;20349;-93
2023/03/06 03:42:46;;;;;;;64.68;31.48;;;;;;;;;;5101391;28;20072;-95
2023/03/06 03:45:12;;;;;;;68.75;32.22;;;;;;;;;;5079971;28;20032;-93
2023/03/06 03:47:39;;;;;;;51.67;27.58;;;;;;;;;;5080981;28;20055;-93
2023/03/06 03:50:07;;;;;;;55.30;27.70;;;;;;;;;;5080296;28;20016;-93
2023/03/06 03:52:33;;;;;;;61.22;30.27;;;;;;;;;;5080559;28;20035;-91
2023/03/06 03:54:59;;;;;;;69.30;36.47;;;;;;;;;;5062996;28;20041;-94
2023/03/06 03:57:25;;;;;;;72.53;37.20;;;;;;;;;;5080605;28;20044;-92
2023/03/06 03:59:51;;;;;;;78.00;40.08;;;;;;;;;;5080711;28;20036;-92
2023/03/06 04:02:20;;;;;;;79.30;40.60;;;;;;;;;;5062919;28;20025;-93
2023/03/06 04:04:46;;;;;;;72.10;38.80;;;;;;;;;;5080434;28;20103;-93
2023/03/06 04:07:12;;;;;;;77.47;39.55;;;;;;;;;;5062282;28;20124;-94
2023/03/06 04:09:38;;;;;;;71.55;37.83;;;;;;;;;;5080526;28;20099;-93
2023/03/06 04:12:05;;;;;;;67.10;37.10;;;;;;;;;;5080312;28;20028;-92
2023/03/06 04:14:31;;;;;;;53.67;29.85;;;;;;;;;;5062544;28;20021;-93
2023/03/06 04:16:57;;;;;;;44.70;27.25;;;;;;;;;;5080222;28;20103;-93
2023/03/06 04:19:23;;;;;;;40.05;24.58;;;;;;;;;;5080248;28;20037;-91
2023/03/06 04:21:49;;;;;;;37.08;22.55;;;;;;;;;;5080496;28;20066;-92
2023/03/06 04:24:15;;;;;;;34.72;21.10;;;;;;;;;;5080449;28;20066;-93
2023/03/06 04:26:41;;;;;;;36.80;21.13;;;;;;;;;;5074209;28;20031;-93
2023/03/06 04:29:07;;;;;;;30.45;18.58;;;;;;;;;;5100330;28;20345;-93
2023/03/06 04:31:33;;;;;;;34.03;19.08;;;;;;;;;;5100579;28;20020;-92
2023/03/06 04:33:59;;;;;;;39.05;20.65;;;;;;;;;;5100039;28;20020;-93
2023/03/06 04:36:28;;;;;;;41.25;20.70;;;;;;;;;;5085304;28;20043;-93
2023/03/06 04:38:54;;;;;;;38.75;20.95;;;;;;;;;;5062305;28;20041;-93
2023/03/06 04:41:20;;;;;;;42.88;21.58;;;;;;;;;;5090498;28;20099;-92
2023/03/06 04:43:46;;;;;;;39.30;19.48;;;;;;;;;;5100235;28;20047;-92
2023/03/06 04:46:40;;;;;;;36.60;21.38;;;;;;;;;;5099866;28;20054;-84
2023/03/06 04:49:06;;;;;;;41.42;23.70;;;;;;;;;;5099219;28;20016;-82
2023/03/06 04:51:35;;;;;;;44.50;23.83;;;;;;;;;;5099489;28;20023;-79
2023/03/06 04:54:01;;;;;;;40.05;22.92;;;;;;;;;;5080897;28;20032;-82
2023/03/06 04:56:28;;;;;;;35.17;20.55;;;;;;;;;;5099312;28;20024;-82
2023/03/06 04:58:54;;;;;;;39.20;22.00;;;;;;;;;;5099339;28;20068;-82
2023/03/06 05:01:20;;;;;;;53.45;24.95;;;;;;;;;;5099436;28;20047;-81
2023/03/06 05:03:46;;;;;;;159.15;43.95;;;;;;;;;;5099248;28;20276;-82
2023/03/06 05:06:12;;;;;;;238.32;57.80;;;;;;;;;;5098980;28;20043;-82
2023/03/06 05:08:38;;;;;;;213.40;54.72;;;;;;;;;;5099160;28;20044;-82
2023/03/06 05:11:05;;;;;;;213.32;55.30;;;;;;;;;;5099113;28;20020;-82
2023/03/06 05:13:31;;;;;;;151.85;45.30;;;;;;;;;;5098987;28;20028;-82
2023/03/06 05:16:01;;;;;;;136.18;44.03;;;;;;;;;;5098852;28;20027;-83
2023/03/06 05:18:27;;;;;;;111.18;38.45;;;;;;;;;;5098813;28;20405;-82
2023/03/06 05:20:58;;;;;;;63.08;28.73;;;;;;;;;;5098804;28;20115;-82
2023/03/06 05:23:24;;;;;;;50.08;26.17;;;;;;;;;;5098833;28;20119;-82
2023/03/06 05:25:50;;;;;;;52.33;26.48;;;;;;;;;;5080695;28;20039;-82
2023/03/06 05:28:16;;;;;;;51.28;26.73;;;;;;;;;;5098914;28;20024;-82
2023/03/06 05:30:42;;;;;;;42.53;23.50;;;;;;;;;;5098513;28;20039;-82
2023/03/06 05:33:08;;;;;;;75.82;33.17;;;;;;;;;;5098431;28;20031;-82
2023/03/06 05:35:34;;;;;;;138.05;47.42;;;;;;;;;;5098526;28;20065;-82
2023/03/06 05:38:00;;;;;;;154.63;49.83;;;;;;;;;;5097794;28;20032;-82
2023/03/06 05:40:27;;;;;;;177.57;55.35;;;;;;;;;;5098708;28;20142;-82
2023/03/06 05:42:53;;;;;;;186.95;57.13;;;;;;;;;;5098457;28;20455;-82
2023/03/06 05:45:19;;;;;;;161.32;56.80;;;;;;;;;;5098358;28;20027;-82
2023/03/06 05:47:45;;;;;;;171.65;56.45;;;;;;;;;;5097806;28;20020;-82
2023/03/06 05:50:12;;;;;;;183.43;57.63;;;;;;;;;;5098532;28;20016;-83
2023/03/06 05:52:39;;;;;;;171.63;56.63;;;;;;;;;;5098254;28;20016;-83
2023/03/06 05:55:05;;;;;;;158.63;50.97;;;;;;;;;;5098056;28;20024;-82
2023/03/06 05:57:31;;;;;;;167.82;53.67;;;;;;;;;;5098339;28;20047;-82
2023/03/06 05:59:57;;;;;;;139.05;49.92;;;;;;;;;;5080029;28;20036;-82
2023/03/06 06:02:23;;;;;;;156.50;53.88;;;;;;;;;;5097910;28;20077;-82
2023/03/06 06:04:49;;;;;;;158.70;53.83;;;;;;;;;;5098015;28;20402;-82
2023/03/06 06:07:16;;;;;;;150.20;54.22;;;;;;;;;;5097955;28;20055;-82
2023/03/06 06:09:44;;;;;;;141.32;51.58;;;;;;;;;;5097827;28;20032;-82
2023/03/06 06:12:10;;;;;;;183.35;56.28;;;;;;;;;;5097965;28;20020;-82
2023/03/06 06:14:36;;;;;;;200.27;60.50;;;;;;;;;;5097714;28;20024;-82
2023/03/06 06:17:03;;;;;;;302.70;86.82;;;;;;;;;;5079724;28;20036;-82
2023/03/06 06:19:29;;;;;;;163.73;61.50;;;;;;;;;;5097777;28;20024;-82
2023/03/06 06:21:55;;;;;;;82.10;38.28;;;;;;;;;;5097651;28;20020;-83
2023/03/06 06:24:23;;;;;;;61.72;32.15;;;;;;;;;;5079672;28;20055;-83
2023/03/06 06:26:53;;;;;;;58.38;32.38;;;;;;;;;;5097230;28;20028;-82
2023/03/06 06:29:19;;;;;;;57.80;34.28;;;;;;;;;;5079588;28;20050;-83
2023/03/06 06:31:45;;;;;;;58.53;35.03;;;;;;;;;;5079606;28;20039;-83
2023/03/06 06:34:11;;;;;;;67.00;34.00;;;;;;;;;;5097682;28;20111;-83
2023/03/06 06:36:38;;;;;;;67.03;35.10;;;;;;;;;;5079381;28;20414;-83
2023/03/06 06:39:04;;;;;;;56.35;33.38;;;;;;;;;;5097674;28;20024;-83
2023/03/06 06:41:30;;;;;;;60.08;32.33;;;;;;;;;;5097453;28;20028;-83
2023/03/06 06:43:56;;;;;;;57.50;33.63;;;;;;;;;;5097379;28;20023;-83
2023/03/06 06:46:22;;;;;;;59.60;35.45;;;;;;;;;;5097226;28;20020;-83
2023/03/06 06:48:49;;;;;;;60.25;36.47;;;;;;;;;;5079388;28;20036;-83
2023/03/06 06:51:16;;;;;;;57.92;30.67;;;;;;;;;;5097568;28;20027;-82
2023/03/06 06:53:43;;;;;;;55.65;32.38;;;;;;;;;;5079444;28;20038;-83
2023/03/06 06:56:09;;;;;;;59.50;32.70;;;;;;;;;;5097373;28;20291;-83
2023/03/06 06:58:35;;;;;;;60.58;31.50;;;;;;;;;;5097353;28;20031;-82
2023/03/06 07:01:07;;;;;;;67.00;34.10;;;;;;;;;;5097134;28;20028;-82
2023/03/06 07:03:34;;;;;;;60.67;31.38;;;;;;;;;;5097082;28;20447;-82
2023/03/06 07:06:00;;;;;;;63.63;32.55;;;;;;;;;;5096911;28;20343;-82
2023/03/06 07:08:26;;;;;;;56.40;31.60;;;;;;;;;;5097254;28;20012;-82
2023/03/06 07:10:52;;;;;;;54.75;30.63;;;;;;;;;;5079438;28;20020;-83
2023/03/06 07:13:18;;;;;;;56.55;31.13;;;;;;;;;;5097120;28;20032;-82
2023/03/06 07:15:44;;;;;;;54.45;31.48;;;;;;;;;;5079049;28;20123;-83
2023/03/06 07:18:10;;;;;;;50.47;25.77;;;;;;;;;;5096804;28;20047;-82
2023/03/06 07:20:36;;;;;;;44.75;25.25;;;;;;;;;;5097506;28;20020;-83
2023/03/06 07:23:02;;;;;;;41.25;23.75;;;;;;;;;;5097130;28;20028;-83
2023/03/06 07:25:28;;;;;;;41.90;23.77;;;;;;;;;;5079260;28;20065;-83
2023/03/06 07:27:54;;;;;;;42.33;24.60;;;;;;;;;;5079171;28;20028;-83
2023/03/06 07:30:23;;;;;;;44.90;25.90;;;;;;;;;;5097072;28;20032;-82
2023/03/06 07:32:54;;;;;;;48.38;25.83;;;;;;;;;;5079165;28;20405;-83
2023/03/06 07:35:20;;;;;;;40.58;24.02;;;;;;;;;;5096954;28;20414;-83
2023/03/06 07:37:46;;;;;;;45.15;23.85;;;;;;;;;;5097283;28;20103;-83
2023/03/06 07:40:12;;;;;;;31.73;20.17;;;;;;;;;;5079152;28;20036;-83
2023/03/06 07:42:38;;;;;;;36.65;22.23;;;;;;;;;;5096514;28;20341;-82
2023/03/06 07:45:05;;;;;;;33.75;19.10;;;;;;;;;;5096948;28;20032;-83
2023/03/06 07:47:31;;;;;;;32.45;18.88;;;;;;;;;;5096294;28;20016;-82
2023/03/06 07:49:58;;;;;;;32.78;19.08;;;;;;;;;;5078448;28;20169;-82
2023/03/06 07:52:24;;;;;;;31.58;18.65;;;;;;;;;;5096569;28;20052;-81
2023/03/06 07:54:50;;;;;;;35.38;19.80;;;;;;;;;;5078744;28;20036;-82
2023/03/06 07:57:16;;;;;;;34.35;19.63;;;;;;;;;;5096679;28;20115;-82
2023/03/06 07:59:42;;;;;;;26.75;16.35;;;;;;;;;;5078844;28;20040;-82
2023/03/06 08:02:10;;;;;;;22.88;15.35;;;;;;;;;;5100083;28;20024;-83
2023/03/06 08:04:36;;;;;;;27.08;15.02;;;;;;;;;;5100365;28;20394;-83
2023/03/06 08:07:02;;;;;;;27.25;14.35;;;;;;;;;;5100147;28;20044;-83
2023/03/06 08:09:28;;;;;;;24.95;14.48;;;;;;;;;;5100467;28;20378;-83
2023/03/06 08:11:54;;;;;;;23.65;13.38;;;;;;;;;;5100398;28;20020;-82
2023/03/06 08:14:22;;;;;;;23.48;14.23;;;;;;;;;;5100284;28;20027;-82
2023/03/06 08:16:50;;;;;;;39.80;19.65;;;;;;;;;;5099873;28;20049;-82
2023/03/06 08:19:16;;;;;;;38.55;20.75;;;;;;;;;;5100095;28;20012;-82
2023/03/06 08:21:42;;;;;;;25.73;15.52;;;;;;;;;;5100286;28;20031;-82
2023/03/06 08:24:08;;;;;;;28.45;16.95;;;;;;;;;;5081905;28;20048;-82
2023/03/06 08:26:34;;;;;;;33.70;17.35;;;;;;;;;;5099891;28;20036;-81
2023/03/06 08:29:01;;;;;;;26.80;16.35;;;;;;;;;;5099802;28;20024;-81
2023/03/06 08:31:27;;;;;;;28.65;14.52;;;;;;;;;;5099745;28;20043;-82
2023/03/06 08:33:54;;;;;;;22.27;14.07;;;;;;;;;;5081083;28;20063;-82
2023/03/06 08:36:20;;;;;;;23.00;14.73;;;;;;;;;;5099437;28;20069;-83
2023/03/06 08:38:46;;;;;;;22.88;14.40;;;;;;;;;;5099749;28;20099;-83
2023/03/06 08:41:13;;;;;;;26.83;16.15;;;;;;;;;;5099524;28;20036;-82
2023/03/06 08:43:39;;;;;;;35.28;15.70;;;;;;;;;;5081631;28;20032;-82
2023/03/06 08:46:05;;;;;;;59.60;25.65;;;;;;;;;;5099436;28;20030;-82
2023/03/06 08:48:31;;;;;;;65.00;22.77;;;;;;;;;;5099387;28;20066;-82
2023/03/06 08:50:57;;;;;;;21.58;11.80;;;;;;;;;;5081519;28;20093;-82
2023/03/06 08:53:24;;;;;;;24.23;12.52;;;;;;;;;;5099377;28;20123;-82
2023/03/06 08:55:50;;;;;;;31.45;17.50;;;;;;;;;;5099300;28;20024;-83
2023/03/06 08:58:16;;;;;;;36.40;18.45;;;;;;;;;;5099546;28;20032;-83
2023/03/06 09:00:43;;;;;;;20.33;12.77;;;;;;;;;;5099257;28;20115;-82
2023/03/06 09:03:09;;;;;;;24.08;14.13;;;;;;;;;;5099338;28;20027;-82
2023/03/06 09:05:35;;;;;;;25.63;15.40;;;;;;;;;;5081008;28;20042;-82
2023/03/06 09:08:01;;;;;;;14.70;9.68;;;;;;;;;;5099130;28;20023;-82
2023/03/06 09:10:27;;;;;;;34.53;20.05;;;;;;;;;;5099118;28;20027;-82
2023/03/06 09:12:54;;;;;;;17.48;11.63;;;;;;;;;;5080010;28;20051;-82
2023/03/06 09:15:20;;;;;;;20.38;10.48;;;;;;;;;;5098870;28;20049;-80
2023/03/06 09:17:47;;;;;;;16.75;10.18;;;;;;;;;;5080909;28;20067;-82
2023/03/06 09:20:15;;;;;;;16.52;10.35;;;;;;;;;;5098503;28;20028;-82
2023/03/06 09:22:41;;;;;;;20.83;11.75;;;;;;;;;;5080829;28;20028;-81
2023/03/06 09:25:08;;;;;;;20.95;12.23;;;;;;;;;;5098947;28;20016;-82
2023/03/06 09:27:34;;;;;;;13.68;8.60;;;;;;;;;;5098729;28;20091;-81
2023/03/06 09:30:00;;;;;;;21.05;11.48;;;;;;;;;;5098609;28;20406;-82
2023/03/06 09:32:26;;;;;;;22.70;12.05;;;;;;;;;;5098445;28;20032;-82
2023/03/06 09:34:52;;;;;;;17.85;9.95;;;;;;;;;;5098848;28;20024;-82
2023/03/06 09:37:18;;;;;;;15.93;10.18;;;;;;;;;;5080376;28;20501;-82
2023/03/06 09:39:44;;;;;;;20.83;10.27;;;;;;;;;;5098468;28;20046;-82
2023/03/06 09:42:17;;;;;;;18.02;10.90;;;;;;;;;;5080320;28;20377;-82
2023/03/06 09:44:46;;;;;;;25.52;13.65;;;;;;;;;;5098460;28;20315;-82
2023/03/06 09:47:27;;;;;;;15.85;8.68;;;;;;;;;;5080248;28;20335;-81
2023/03/06 09:49:59;;;;;;;16.63;10.38;;;;;;;;;;5098495;28;20059;-82
2023/03/06 09:52:27;;;;;;;;;;;;;;;;;;5098724;28;20031;-82
2023/03/06 09:54:54;;;;;;;19.45;9.55;;;;;;;;;;5098117;28;19904;-82
2023/03/06 09:57:40;;;;;;;17.65;10.07;;;;;;;;;;5098274;28;20390;-82
2023/03/06 10:00:13;;;;;;;20.60;11.70;;;;;;;;;;5097944;28;20036;-81
2023/03/06 10:02:47;;;;;;;18.67;11.52;;;;;;;;;;5080147;28;20321;-82
2023/03/06 10:05:17;;;;;;;18.92;10.10;;;;;;;;;;5097711;28;20036;-82
2023/03/06 10:07:45;;;;;;;23.40;12.85;;;;;;;;;;5097975;28;20024;-82
2023/03/06 10:10:16;;;;;;;19.80;12.65;;;;;;;;;;5097494;28;20440;-80
2023/03/06 10:12:47;;;;;;;19.52;12.57;;;;;;;;;;5097220;28;20024;-81
2023/03/06 10:15:19;;;;;;;27.05;13.68;;;;;;;;;;5097159;28;20024;-81
2023/03/06 10:17:45;;;;;;;23.60;11.60;;;;;;;;;;5096753;28;20028;-82
2023/03/06 10:20:17;;;;;;;20.58;12.63;;;;;;;;;;5096843;28;20132;-81
2023/03/06 10:23:09;;;;;;;17.48;10.63;;;;;;;;;;5096408;28;20044;-81
2023/03/06 10:25:46;;;;;;;18.58;11.52;;;;;;;;;;4995306;28;20129;-81
2023/03/06 10:28:20;;;;;;;22.10;13.20;;;;;;;;;;4995160;28;20026;-81
2023/03/06 10:31:05;;;;;;;22.02;12.95;;;;;;;;;;4994938;28;20046;-81
2023/03/06 10:33:37;;;;;;;23.10;12.25;;;;;;;;;;4995120;28;20030;-81
2023/03/06 10:36:03;;;;;;;26.55;13.40;;;;;;;;;;4994780;28;20046;-80
2023/03/06 10:38:29;;;;;;;21.65;12.85;;;;;;;;;;5010262;28;20336;-80
2023/03/06 10:40:58;;;;;;;26.45;14.00;;;;;;;;;;5014679;28;20034;-81
2023/03/06 10:43:24;;;;;;;21.92;13.02;;;;;;;;;;5033128;28;20041;-78
2023/03/06 10:45:52;;;;;;;21.92;12.45;;;;;;;;;;5034363;28;20026;-79
2023/03/06 10:48:19;;;;;;;19.60;12.23;;;;;;;;;;5034036;28;20033;-80
2023/03/06 10:50:45;;;;;;;22.17;12.40;;;;;;;;;;5034388;28;20367;-79
2023/03/06 10:53:23;;;;;;;22.73;12.95;;;;;;;;;;5017682;28;20123;-80
2023/03/06 10:55:54;;;;;;;20.90;12.95;;;;;;;;;;5029836;28;20343;-80
2023/03/06 10:58:24;;;;;;;22.88;12.38;;;;;;;;;;5012864;28;20022;-80
2023/03/06 11:01:19;;;;;;;22.63;13.05;;;;;;;;;;5021022;28;20038;-81
2023/03/06 11:03:46;;;;;;;38.95;21.40;;;;;;;;;;5054004;28;20078;-80
2023/03/06 11:06:14;;;;;;;29.35;16.13;;;;;;;;;;5037239;28;20041;-81
2023/03/06 11:08:41;;;;;;;25.52;14.52;;;;;;;;;;5053767;28;20041;-80
2023/03/06 11:11:15;;;;;;;24.98;14.77;;;;;;;;;;5037319;28;20059;-80
2023/03/06 11:13:42;;;;;;;22.05;12.98;;;;;;;;;;5032840;28;20133;-80
2023/03/06 11:16:26;;;;;;;33.42;17.33;;;;;;;;;;5037334;28;20381;-81
2023/03/06 11:18:56;;;;;;;37.58;20.45;;;;;;;;;;5054001;28;20033;-80
2023/03/06 11:21:24;;;;;;;38.67;18.75;;;;;;;;;;5054044;28;20703;-81
2023/03/06 11:23:50;;;;;;;33.63;14.82;;;;;;;;;;5037507;28;20051;-81
2023/03/06 11:26:17;;;;;;;29.73;14.20;;;;;;;;;;5038165;28;20052;-81
2023/03/06 11:28:46;;;;;;;31.73;15.48;;;;;;;;;;5038152;28;20017;-81
2023/03/06 11:31:16;;;;;;;25.33;15.45;;;;;;;;;;5038189;28;20029;-81
2023/03/06 11:33:51;;;;;;;21.05;13.23;;;;;;;;;;5026275;28;20133;-81
2023/03/06 11:36:35;;;;;;;30.60;16.23;;;;;;;;;;5016119;28;20091;-81
2023/03/06 11:39:03;;;;;;;33.75;15.38;;;;;;;;;;5040352;28;20327;-80
2023/03/06 11:41:47;;;;;;;31.00;16.40;;;;;;;;;;5095281;28;20032;-80
2023/03/06 11:44:25;;;;;;;26.77;14.98;;;;;;;;;;5093130;28;20024;-80
2023/03/06 11:47:03;;;;;;;31.27;16.02;;;;;;;;;;5073548;28;20032;-80
2023/03/06 11:49:33;;;;;;;39.55;22.10;;;;;;;;;;5079847;28;20395;-80
2023/03/06 11:52:02;;;;;;;141.82;66.03;;;;;;;;;;5080058;28;20029;-80
2023/03/06 11:54:29;;;;;;;61.97;29.83;;;;;;;;;;5062252;28;20035;-80
2023/03/06 11:57:01;;;;;;;50.05;26.50;;;;;;;;;;5062217;28;20024;-80
2023/03/06 11:59:40;;;;;;;39.83;20.42;;;;;;;;;;5079928;28;20041;-80
2023/03/06 12:02:09;;;;;;;157.98;76.05;;;;;;;;;;5062268;28;20021;-80
2023/03/06 12:04:47;;;;;;;95.95;45.60;;;;;;;;;;5080011;28;20016;-80
2023/03/06 12:07:19;;;;;;;68.80;34.22;;;;;;;;;;5091158;28;20319;-80
2023/03/06 12:09:48;;;;;;;;;;;;;;;;;;5080183;28;20440;-80
2023/03/06 12:12:23;;;;;;;26.95;14.77;;;;;;;;;;5080387;28;19958;-80
2023/03/06 12:15:04;;;;;;;28.38;15.77;;;;;;;;;;5079850;28;20033;-80
2023/03/06 12:17:49;;;;;;;26.35;15.15;;;;;;;;;;5089323;28;20388;-80
2023/03/06 12:20:33;;;;;;;23.75;14.55;;;;;;;;;;5084919;28;20060;-80
2023/03/06 12:23:10;;;;;;;28.02;15.80;;;;;;;;;;5061377;28;20082;-80
2023/03/06 12:25:43;;;;;;;27.58;15.45;;;;;;;;;;5087301;28;20295;-80
2023/03/06 12:28:30;;;;;;;25.60;15.10;;;;;;;;;;5079336;28;20025;-80
2023/03/06 12:31:23;;;;;;;25.83;14.40;;;;;;;;;;5079384;28;20025;-80
2023/03/06 12:34:07;;;;;;;24.27;14.07;;;;;;;;;;4998104;28;20139;-80
2023/03/06 12:36:56;;;;;;;27.05;14.88;;;;;;;;;;5023178;28;20053;-79
2023/03/06 12:39:28;;;;;;;26.70;14.95;;;;;;;;;;4959180;29;20032;-79
2023/03/06 12:41:54;;;;;;;;;;;;;;;;;;4948361;29;20295;-79
2023/03/06 12:44:35;;;;;;;61.17;29.90;;;;;;;;;;4940027;29;19913;-79
2023/03/06 12:47:02;;;;;;;76.70;34.17;;;;;;;;;;4934458;29;20066;-79
2023/03/06 12:49:37;;;;;;;46.42;21.02;;;;;;;;;;4959073;29;20039;-79
2023/03/06 12:52:04;;;;;;;28.42;15.95;;;;;;;;;;4959038;29;20062;-79
2023/03/06 12:54:33;;;;;;;32.88;15.57;;;;;;;;;;4959067;29;20038;-79
2023/03/06 12:56:59;;;;;;;24.98;13.40;;;;;;;;;;4958977;29;20353;-79
2023/03/06 12:59:46;;;;;;;28.67;14.20;;;;;;;;;;4958392;29;20043;-79
2023/03/06 13:02:31;;;;;;;39.60;18.40;;;;;;;;;;4958915;29;20383;-79
2023/03/06 13:04:59;;;;;;;32.78;16.48;;;;;;;;;;4958611;29;20151;-79
2023/03/06 13:07:28;;;;;;;32.97;17.90;;;;;;;;;;4958835;29;20035;-79
2023/03/06 13:09:57;;;;;;;32.50;17.95;;;;;;;;;;4967937;28;20030;-79
2023/03/06 13:12:29;;;;;;;84.10;39.28;;;;;;;;;;5017041;28;20030;-79
2023/03/06 13:14:56;;;;;;;53.30;26.20;;;;;;;;;;5017210;28;20428;-78
2023/03/06 13:17:22;;;;;;;42.60;21.42;;;;;;;;;;5112528;28;20028;-79
2023/03/06 13:20:08;;;;;;;46.45;20.17;;;;;;;;;;5119202;28;20043;-79
2023/03/06 13:22:34;;;;;;;24.58;13.80;;;;;;;;;;5118781;28;20457;-79
2023/03/06 13:25:16;;;;;;;30.50;14.88;;;;;;;;;;5100670;28;20397;-80
2023/03/06 13:27:54;;;;;;;50.22;31.35;;;;;;;;;;5118992;28;20043;-79
2023/03/06 13:30:20;;;;;;;25.48;14.05;;;;;;;;;;5119029;28;20111;-79
2023/03/06 13:32:48;;;;;;;29.20;16.92;;;;;;;;;;5100647;28;20317;-80
2023/03/06 13:35:32;;;;;;;30.02;16.48;;;;;;;;;;5118905;28;20023;-79
2023/03/06 13:37:58;;;;;;;50.47;26.60;;;;;;;;;;5118810;28;20020;-80
2023/03/06 13:40:32;;;;;;;48.97;29.98;;;;;;;;;;5090198;28;20070;-80
2023/03/06 13:43:07;;;;;;;63.42;33.05;;;;;;;;;;5097849;28;20032;-79
2023/03/06 13:45:38;;;;;;;83.28;44.72;;;;;;;;;;5080264;28;20021;-79
2023/03/06 13:48:04;;;;;;;73.50;45.00;;;;;;;;;;5080591;28;20070;-79
2023/03/06 13:50:31;;;;;;;43.45;25.77;;;;;;;;;;5091846;28;20024;-80
2023/03/06 13:52:56;;;;;;;38.45;21.35;;;;;;;;;;5077763;28;20025;-80
2023/03/06 13:55:34;;;;;;;108.75;57.97;;;;;;;;;;5078027;28;20035;-79
2023/03/06 13:58:07;;;;;;;51.28;28.80;;;;;;;;;;5059258;28;20059;-80
2023/03/06 14:00:33;;;;;;;62.63;34.22;;;;;;;;;;5077861;28;20353;-79
2023/03/06 14:03:18;;;;;;;39.33;25.08;;;;;;;;;;5077460;28;20407;-79
2023/03/06 14:05:45;;;;;;;46.50;30.73;;;;;;;;;;5077502;28;20426;-80
2023/03/06 14:08:15;;;;;;;38.97;23.65;;;;;;;;;;5077662;28;20028;-80
2023/03/06 14:10:41;;;;;;;71.60;43.17;;;;;;;;;;5059638;28;20020;-80
2023/03/06 14:13:13;;;;;;;48.88;29.55;;;;;;;;;;5087648;28;20056;-80
2023/03/06 14:15:50;;;;;;;40.72;23.55;;;;;;;;;;5078990;28;20064;-80
2023/03/06 14:18:23;;;;;;;38.38;26.45;;;;;;;;;;5097618;28;20032;-79
2023/03/06 14:20:59;;;;;;;24.73;14.68;;;;;;;;;;5097630;28;20028;-89
2023/03/06 14:23:27;;;;;;;41.42;25.88;;;;;;;;;;5079957;28;20437;-83
2023/03/06 14:25:57;;;;;;;19.77;11.43;;;;;;;;;;5079996;28;20024;-82